Time;durP1;ratioP1;P1;durP2;ratioP2;P2;SDS_P1;SDS_P2;PMS_P1;PMS_P2;Temp;Humidity;BMP_temperature;BMP_pressure;BME280_temperature;BME280_humidity;BME280_pressure;Samples;Min_cycle;Max_cycle;Signal;HPM_P1;HPM_P2
2022/10/10 00:01:52;;;;;;;10.60;4.80;;;7.00;99.90;;;;;;5101439;28;20984;-70
2022/10/10 00:04:18;;;;;;;4.83;4.30;;;7.00;99.90;;;;;;5108428;28;20460;-70
2022/10/10 00:06:45;;;;;;;5.30;3.77;;;7.00;99.90;;;;;;5108817;28;20994;-70
2022/10/10 00:09:12;;;;;;;6.23;4.40;;;7.00;99.90;;;;;;5100127;28;20451;-70
2022/10/10 00:11:39;;;;;;;6.00;3.87;;;7.00;99.90;;;;;;5103182;28;20519;-70
2022/10/10 00:14:06;;;;;;;7.50;4.00;;;7.10;99.90;;;;;;5094809;28;20458;-70
2022/10/10 00:16:34;;;;;;;6.00;3.67;;;7.10;99.90;;;;;;5100044;28;20457;-70
2022/10/10 00:19:00;;;;;;;6.03;3.90;;;7.10;99.90;;;;;;5101986;28;20465;-70
2022/10/10 00:21:27;;;;;;;7.83;3.80;;;7.10;99.90;;;;;;5102672;28;20490;-69
2022/10/10 00:23:54;;;;;;;5.53;4.03;;;7.10;99.90;;;;;;5107388;28;20459;-70
2022/10/10 00:26:21;;;;;;;5.87;4.00;;;7.10;99.90;;;;;;5102991;28;20453;-70
2022/10/10 00:28:48;;;;;;;6.40;3.70;;;7.10;99.90;;;;;;5108682;28;20544;-70
2022/10/10 00:31:15;;;;;;;4.50;3.97;;;7.10;99.90;;;;;;5096873;28;20519;-69
2022/10/10 00:33:44;;;;;;;4.10;3.40;;;7.10;99.90;;;;;;5104478;28;20456;-69
2022/10/10 00:36:10;;;;;;;7.33;4.03;;;7.10;99.90;;;;;;5107274;28;20865;-70
2022/10/10 00:38:37;;;;;;;5.50;3.70;;;7.10;99.90;;;;;;5108880;27;21011;-70
2022/10/10 00:41:05;;;;;;;4.03;3.73;;;7.10;99.90;;;;;;5106844;28;20494;-70
2022/10/10 00:43:32;;;;;;;7.33;3.50;;;7.20;99.90;;;;;;5105840;28;20542;-70
2022/10/10 00:45:59;;;;;;;8.40;4.00;;;7.10;99.90;;;;;;5100778;28;20499;-69
2022/10/10 00:48:28;;;;;;;5.87;3.80;;;7.10;99.90;;;;;;5108900;28;20468;-70
2022/10/10 00:51:00;;;;;;;3.80;3.50;;;7.20;99.90;;;;;;5107026;28;20465;-70
2022/10/10 00:53:29;;;;;;;4.50;3.80;;;7.20;99.90;;;;;;5090879;28;20459;-70
2022/10/10 00:55:56;;;;;;;3.80;3.50;;;7.20;99.90;;;;;;5090724;28;20545;-70
2022/10/10 00:58:24;;;;;;;7.37;4.30;;;7.10;99.90;;;;;;5091026;28;20476;-69
2022/10/10 01:00:51;;;;;;;6.70;4.83;;;7.10;99.90;;;;;;5090212;28;20556;-70
2022/10/10 01:03:18;;;;;;;4.47;3.70;;;7.10;99.90;;;;;;5090529;28;20455;-70
2022/10/10 01:05:45;;;;;;;4.10;3.60;;;7.10;99.90;;;;;;5090434;28;20526;-70
2022/10/10 01:08:14;;;;;;;4.17;3.77;;;7.00;99.90;;;;;;5092713;28;20494;-70
2022/10/10 01:10:54;;;;;;;5.30;4.00;;;7.00;99.90;;;;;;5098387;28;20580;-70
2022/10/10 01:13:28;;;;;;;4.00;3.40;;;7.00;99.90;;;;;;5099052;28;20451;-70
2022/10/10 01:15:59;;;;;;;7.13;4.53;;;6.90;99.90;;;;;;5095570;28;20547;-69
2022/10/10 01:18:41;;;;;;;11.30;4.43;;;6.90;99.90;;;;;;5090859;28;20458;-70
2022/10/10 01:21:19;;;;;;;4.97;4.40;;;6.80;99.90;;;;;;5089836;28;20859;-70
2022/10/10 01:24:11;;;;;;;7.83;4.03;;;6.70;99.90;;;;;;5104198;28;20455;-70
2022/10/10 01:27:10;;;;;;;5.40;4.77;;;6.70;99.90;;;;;;5096453;28;20509;-69
2022/10/10 01:29:43;;;;;;;5.93;4.53;;;6.60;99.90;;;;;;5103098;28;20456;-70
2022/10/10 01:32:15;;;;;;;4.57;4.17;;;6.50;99.90;;;;;;5094348;28;20483;-70
2022/10/10 01:35:02;;;;;;;6.57;4.80;;;6.40;99.90;;;;;;5093327;28;20832;-69
2022/10/10 01:37:39;;;;;;;6.70;4.20;;;6.30;99.90;;;;;;5102089;28;20448;-70
2022/10/10 01:40:11;;;;;;;6.00;4.53;;;6.20;99.90;;;;;;5106247;28;20511;-70
2022/10/10 01:42:43;;;;;;;4.63;4.23;;;6.20;99.90;;;;;;5095580;28;20494;-70
2022/10/10 01:45:11;;;;;;;4.90;3.93;;;6.20;99.90;;;;;;5100015;28;21344;-70
2022/10/10 01:47:38;;;;;;;6.90;4.73;;;6.20;99.90;;;;;;5108268;28;20446;-70
2022/10/10 01:50:09;;;;;;;4.83;4.30;;;6.20;99.90;;;;;;5106156;28;20958;-70
2022/10/10 01:52:44;;;;;;;5.40;4.27;;;6.10;99.90;;;;;;5101762;28;21010;-70
2022/10/10 01:55:23;;;;;;;11.87;4.83;;;6.10;99.90;;;;;;5099906;28;20515;-70
2022/10/10 01:58:03;;;;;;;6.83;4.77;;;6.10;99.90;;;;;;5094880;28;20451;-70
2022/10/10 02:00:39;;;;;;;5.37;4.83;;;6.00;99.90;;;;;;5099099;28;20442;-70
2022/10/10 02:03:13;;;;;;;5.87;4.70;;;6.00;99.90;;;;;;5099389;28;20441;-70
2022/10/10 02:05:45;;;;;;;5.07;4.20;;;6.00;99.90;;;;;;5096937;28;20849;-69
2022/10/10 02:08:15;;;;;;;6.53;4.23;;;6.00;99.90;;;;;;5102268;28;20463;-70
2022/10/10 02:10:48;;;;;;;6.33;4.80;;;6.00;99.90;;;;;;5097168;28;20475;-70
2022/10/10 02:13:16;;;;;;;6.73;4.70;;;5.90;99.90;;;;;;5112253;28;20957;-70
2022/10/10 02:15:48;;;;;;;6.07;4.73;;;5.90;99.90;;;;;;5096938;28;20450;-70
2022/10/10 02:18:17;;;;;;;5.10;4.57;;;5.90;99.90;;;;;;5097857;28;21760;-70
2022/10/10 02:20:45;;;;;;;7.57;4.40;;;5.90;99.90;;;;;;5101611;28;20470;-70
2022/10/10 02:23:16;;;;;;;4.57;4.17;;;5.90;99.90;;;;;;5096826;28;20502;-70
2022/10/10 02:25:46;;;;;;;5.10;4.30;;;5.90;99.90;;;;;;5096901;28;20466;-70
2022/10/10 02:28:17;;;;;;;5.83;4.50;;;5.90;99.90;;;;;;5097811;28;20500;-70
2022/10/10 02:30:48;;;;;;;6.37;4.97;;;5.80;99.90;;;;;;5107054;28;20470;-70
2022/10/10 02:33:19;;;;;;;6.50;5.17;;;5.70;99.90;;;;;;5109466;27;20471;-70
2022/10/10 02:35:50;;;;;;;12.87;5.20;;;5.60;99.90;;;;;;5111422;28;20809;-70
2022/10/10 02:38:18;;;;;;;8.20;5.43;;;5.60;99.90;;;;;;5104293;28;20460;-69
2022/10/10 02:40:47;;;;;;;8.20;4.80;;;5.60;99.90;;;;;;5105619;27;20466;-70
2022/10/10 02:43:17;;;;;;;6.57;5.17;;;5.60;99.90;;;;;;5103218;28;20539;-69
2022/10/10 02:45:46;;;;;;;5.40;4.77;;;5.60;99.90;;;;;;5111176;28;20945;-69
2022/10/10 02:48:12;;;;;;;6.80;5.10;;;5.60;99.90;;;;;;5103698;28;20466;-69
2022/10/10 02:50:39;;;;;;;6.70;4.73;;;5.60;99.90;;;;;;5101428;28;20518;-69
2022/10/10 02:53:06;;;;;;;6.77;5.13;;;5.60;99.90;;;;;;5102109;28;20451;-69
2022/10/10 02:55:32;;;;;;;5.13;4.43;;;5.60;99.90;;;;;;5093086;28;20451;-69
2022/10/10 02:57:59;;;;;;;6.83;5.07;;;5.60;99.90;;;;;;5093189;28;20444;-69
2022/10/10 03:00:26;;;;;;;5.00;4.50;;;5.60;99.90;;;;;;5093052;28;20455;-69
2022/10/10 03:02:54;;;;;;;5.77;4.80;;;5.50;99.90;;;;;;5093045;28;20531;-69
2022/10/10 03:05:20;;;;;;;7.93;5.30;;;5.50;99.90;;;;;;5101191;28;20854;-70
2022/10/10 03:07:47;;;;;;;9.53;5.17;;;5.50;99.90;;;;;;5105697;28;20859;-69
2022/10/10 03:10:14;;;;;;;13.00;5.70;;;5.50;99.90;;;;;;5099815;28;20489;-69
2022/10/10 03:12:40;;;;;;;8.47;5.30;;;5.50;99.90;;;;;;5098780;28;20461;-69
2022/10/10 03:15:07;;;;;;;6.80;4.90;;;5.50;99.90;;;;;;5106915;28;20455;-69
2022/10/10 03:17:34;;;;;;;10.53;5.90;;;5.50;99.90;;;;;;5104646;28;20478;-69
2022/10/10 03:20:02;;;;;;;6.13;5.00;;;5.50;99.90;;;;;;5095860;28;20462;-69
2022/10/10 03:22:29;;;;;;;9.40;4.90;;;5.50;99.90;;;;;;5095570;27;20534;-70
2022/10/10 03:24:56;;;;;;;8.33;5.07;;;5.50;99.90;;;;;;5102497;28;20449;-70
2022/10/10 03:27:22;;;;;;;6.20;4.90;;;5.50;99.90;;;;;;5097708;28;21168;-69
2022/10/10 03:29:49;;;;;;;8.13;5.53;;;5.50;99.90;;;;;;5110360;28;20472;-69
2022/10/10 03:32:16;;;;;;;8.03;5.70;;;5.40;99.90;;;;;;5108065;28;20887;-70
2022/10/10 03:34:42;;;;;;;8.20;5.10;;;5.40;99.90;;;;;;5110053;28;20878;-70
2022/10/10 03:37:11;;;;;;;10.43;5.07;;;5.40;99.90;;;;;;5108295;28;20456;-69
2022/10/10 03:39:37;;;;;;;11.70;6.20;;;5.30;99.90;;;;;;5103928;28;20457;-69
2022/10/10 03:42:04;;;;;;;8.83;5.37;;;5.30;99.90;;;;;;5097561;28;20486;-69
2022/10/10 03:44:31;;;;;;;7.83;5.63;;;5.30;99.90;;;;;;5095475;28;20457;-69
2022/10/10 03:46:58;;;;;;;8.77;6.47;;;5.30;99.90;;;;;;5099045;28;20954;-70
2022/10/10 03:49:24;;;;;;;9.67;5.93;;;5.20;99.90;;;;;;5100041;28;20460;-69
2022/10/10 03:51:52;;;;;;;9.80;6.00;;;5.20;99.90;;;;;;5094746;28;20874;-69
2022/10/10 03:54:20;;;;;;;15.27;6.70;;;5.10;99.90;;;;;;5102230;28;20444;-69
2022/10/10 03:56:47;;;;;;;9.83;6.30;;;5.10;99.90;;;;;;5098835;28;20506;-69
2022/10/10 03:59:13;;;;;;;14.80;6.47;;;5.10;99.90;;;;;;5102118;28;20508;-70
2022/10/10 04:01:40;;;;;;;9.07;5.60;;;5.10;99.90;;;;;;5094558;28;20488;-69
2022/10/10 04:04:07;;;;;;;7.60;5.30;;;5.10;99.90;;;;;;5095087;28;20454;-69
2022/10/10 04:06:33;;;;;;;6.30;5.57;;;5.10;99.90;;;;;;5097475;28;20439;-70
2022/10/10 04:09:00;;;;;;;9.23;5.57;;;5.00;99.90;;;;;;5097684;28;20446;-69
2022/10/10 04:11:28;;;;;;;6.97;5.40;;;5.00;99.90;;;;;;5090880;28;20483;-69
2022/10/10 04:13:55;;;;;;;9.53;6.27;;;5.00;99.90;;;;;;5091480;28;20450;-69
2022/10/10 04:16:21;;;;;;;10.33;5.67;;;5.00;99.90;;;;;;5095283;28;20510;-69
2022/10/10 04:18:48;;;;;;;12.43;5.97;;;5.00;99.90;;;;;;5094246;28;20446;-69
2022/10/10 04:21:15;;;;;;;11.57;6.50;;;5.00;99.90;;;;;;5100641;28;20476;-69
2022/10/10 04:23:41;;;;;;;13.17;5.80;;;5.00;99.90;;;;;;5094192;28;21023;-69
2022/10/10 04:26:08;;;;;;;14.07;7.33;;;4.90;99.90;;;;;;5095086;28;20454;-69
2022/10/10 04:28:36;;;;;;;13.53;6.73;;;4.90;99.90;;;;;;5094267;28;20504;-69
2022/10/10 04:31:03;;;;;;;12.90;6.90;;;4.90;99.90;;;;;;5090910;28;20485;-69
2022/10/10 04:33:30;;;;;;;9.97;6.43;;;4.90;99.90;;;;;;5091357;28;20500;-69
2022/10/10 04:35:56;;;;;;;10.80;7.17;;;5.00;99.90;;;;;;5101261;28;20474;-69
2022/10/10 04:38:23;;;;;;;12.40;6.27;;;4.90;99.90;;;;;;5100761;28;20454;-69
2022/10/10 04:40:50;;;;;;;15.17;6.70;;;4.90;99.90;;;;;;5097157;28;20987;-69
2022/10/10 04:43:18;;;;;;;18.80;8.40;;;4.90;99.90;;;;;;5095881;28;20485;-69
2022/10/10 04:45:46;;;;;;;18.50;7.63;;;4.90;99.90;;;;;;5103702;28;20454;-69
2022/10/10 04:48:13;;;;;;;13.60;6.90;;;4.90;99.90;;;;;;5094885;28;20445;-69
2022/10/10 04:50:40;;;;;;;12.43;6.87;;;4.90;99.90;;;;;;5099513;28;20465;-69
2022/10/10 04:53:06;;;;;;;14.40;6.60;;;4.90;99.90;;;;;;5094275;28;20471;-69
2022/10/10 04:55:33;;;;;;;9.43;6.40;;;4.90;99.90;;;;;;5104320;28;20458;-69
2022/10/10 04:58:00;;;;;;;11.60;6.97;;;4.90;99.90;;;;;;5099035;28;20453;-69
2022/10/10 05:00:27;;;;;;;13.53;7.20;;;4.80;99.90;;;;;;5104077;27;20460;-69
2022/10/10 05:02:55;;;;;;;14.73;7.50;;;4.80;99.90;;;;;;5099581;28;20479;-69
2022/10/10 05:05:22;;;;;;;14.37;6.77;;;4.70;99.90;;;;;;5097596;28;20453;-69
2022/10/10 05:07:48;;;;;;;16.27;6.77;;;4.70;99.90;;;;;;5107942;28;20450;-70
2022/10/10 05:10:15;;;;;;;14.23;6.40;;;4.80;99.90;;;;;;5096334;28;20450;-69
2022/10/10 05:12:42;;;;;;;10.60;6.90;;;4.80;99.90;;;;;;5105033;28;21002;-69
2022/10/10 05:15:09;;;;;;;10.53;6.63;;;4.80;99.90;;;;;;5102906;28;20509;-69
2022/10/10 05:17:36;;;;;;;11.13;5.43;;;4.80;99.90;;;;;;5094087;28;20506;-69
2022/10/10 05:20:05;;;;;;;10.13;5.43;;;4.80;99.90;;;;;;5093893;28;20453;-69
2022/10/10 05:22:31;;;;;;;13.03;5.60;;;4.80;99.90;;;;;;5095906;28;20488;-69
2022/10/10 05:24:58;;;;;;;9.60;6.10;;;4.90;99.90;;;;;;5102580;28;20450;-69
2022/10/10 05:27:25;;;;;;;9.90;5.60;;;4.90;99.90;;;;;;5108193;28;20474;-69
2022/10/10 05:29:52;;;;;;;12.93;6.03;;;4.90;99.90;;;;;;5096069;28;20457;-69
2022/10/10 05:32:18;;;;;;;7.73;5.90;;;4.90;99.90;;;;;;5094792;28;21037;-70
2022/10/10 05:34:45;;;;;;;11.83;5.97;;;4.90;99.90;;;;;;5099503;28;20450;-69
2022/10/10 05:37:13;;;;;;;8.83;6.17;;;4.90;99.90;;;;;;5097646;28;20448;-69
2022/10/10 05:39:40;;;;;;;15.13;7.30;;;4.90;99.90;;;;;;5098647;28;20456;-69
2022/10/10 05:42:07;;;;;;;8.17;6.50;;;4.90;99.90;;;;;;5099534;28;20506;-69
2022/10/10 05:44:33;;;;;;;11.83;6.97;;;4.90;99.90;;;;;;5100592;28;20472;-72
2022/10/10 05:47:00;;;;;;;9.30;6.20;;;4.90;99.90;;;;;;5100726;28;20453;-73
2022/10/10 05:49:27;;;;;;;15.23;7.27;;;5.00;99.90;;;;;;5097464;28;20459;-73
2022/10/10 05:51:54;;;;;;;13.33;7.40;;;5.00;99.90;;;;;;5110934;28;20475;-72
2022/10/10 05:54:22;;;;;;;13.43;6.70;;;5.10;99.90;;;;;;5111697;28;20472;-73
2022/10/10 05:56:49;;;;;;;17.37;6.57;;;5.10;99.90;;;;;;5110655;28;20511;-72
2022/10/10 05:59:15;;;;;;;6.80;6.10;;;5.20;99.90;;;;;;5111688;28;20853;-73
2022/10/10 06:01:42;;;;;;;14.73;6.57;;;5.20;99.90;;;;;;5103425;28;20486;-72
2022/10/10 06:04:09;;;;;;;13.43;6.40;;;5.30;99.90;;;;;;5103690;28;20490;-72
2022/10/10 06:06:35;;;;;;;10.13;6.40;;;5.30;99.90;;;;;;5109334;28;20871;-72
2022/10/10 06:09:02;;;;;;;9.30;6.40;;;5.40;99.90;;;;;;5098000;28;20455;-72
2022/10/10 06:11:30;;;;;;;14.33;6.17;;;5.40;99.90;;;;;;5096389;28;20475;-71
2022/10/10 06:13:57;;;;;;;9.10;6.37;;;5.50;99.90;;;;;;5109719;28;20441;-72
2022/10/10 06:16:25;;;;;;;11.63;6.60;;;5.70;99.90;;;;;;5103647;28;20812;-73
2022/10/10 06:18:55;;;;;;;9.07;5.60;;;5.90;99.90;;;;;;5097814;28;20539;-72
2022/10/10 06:21:22;;;;;;;8.20;5.60;;;6.40;99.90;;;;;;5098149;28;20564;-72
2022/10/10 06:23:48;;;;;;;8.30;5.53;;;6.90;99.90;;;;;;5109279;28;20994;-72
2022/10/10 06:26:15;;;;;;;9.50;5.87;;;7.50;99.90;;;;;;5096721;28;20802;-72
2022/10/10 06:28:43;;;;;;;6.17;5.27;;;8.00;99.90;;;;;;5096820;28;20465;-72
2022/10/10 06:31:12;;;;;;;9.57;6.03;;;8.60;99.90;;;;;;5104847;28;21000;-72
2022/10/10 06:33:41;;;;;;;13.33;6.47;;;9.10;99.90;;;;;;5110595;28;20466;-72
2022/10/10 06:36:08;;;;;;;7.87;6.00;;;9.60;99.90;;;;;;5103335;28;20454;-72
2022/10/10 06:38:36;;;;;;;13.10;6.07;;;10.00;99.90;;;;;;5108313;28;20458;-72
2022/10/10 06:41:05;;;;;;;9.90;5.07;;;10.30;99.90;;;;;;5108268;28;20500;-72
2022/10/10 06:43:32;;;;;;;8.17;5.90;;;10.70;99.90;;;;;;5095882;28;20482;-72
2022/10/10 06:46:01;;;;;;;16.73;6.20;;;10.90;99.90;;;;;;5092486;28;20448;-72
2022/10/10 06:48:30;;;;;;;14.10;5.97;;;11.10;99.90;;;;;;5093474;28;21034;-72
2022/10/10 06:50:58;;;;;;;20.90;7.37;;;11.20;99.90;;;;;;5092461;28;20525;-72
2022/10/10 06:53:25;;;;;;;15.40;5.80;;;11.30;99.90;;;;;;5093185;28;20448;-74
2022/10/10 06:55:53;;;;;;;14.87;6.20;;;11.80;99.90;;;;;;5094782;28;20475;-73
2022/10/10 06:58:20;;;;;;;11.13;5.97;;;12.20;99.90;;;;;;5100103;28;20482;-73
2022/10/10 07:00:51;;;;;;;12.03;6.20;;;12.80;99.90;;;;;;5099777;28;20481;-74
2022/10/10 07:03:19;;;;;;;18.50;6.33;;;13.40;99.90;;;;;;5095962;28;20881;-74
2022/10/10 07:05:49;;;;;;;16.33;6.70;;;13.70;99.90;;;;;;5108328;28;20473;-74
2022/10/10 07:08:16;;;;;;;10.13;5.93;;;14.10;99.90;;;;;;5092472;28;20649;-74
2022/10/10 07:10:43;;;;;;;17.90;5.70;;;14.60;99.90;;;;;;5091626;28;20471;-75
2022/10/10 07:13:09;;;;;;;10.37;6.10;;;14.70;99.90;;;;;;5091538;28;20541;-75
2022/10/10 07:15:36;;;;;;;6.20;5.60;;;14.90;99.90;;;;;;5091826;28;20453;-75
2022/10/10 07:18:03;;;;;;;7.00;5.40;;;15.00;99.90;;;;;;5094808;28;20455;-75
2022/10/10 07:20:31;;;;;;;6.50;5.30;;;15.20;99.90;;;;;;5107342;28;20465;-75
2022/10/10 07:22:58;;;;;;;9.63;5.20;;;15.60;99.90;;;;;;5109004;28;20483;-75
2022/10/10 07:25:25;;;;;;;7.43;5.30;;;15.90;99.90;;;;;;5098489;28;20450;-75
2022/10/10 07:27:52;;;;;;;7.33;6.00;;;15.80;99.90;;;;;;5096269;28;20463;-76
2022/10/10 07:30:19;;;;;;;9.67;5.10;;;16.00;99.90;;;;;;5096202;28;20458;-75
2022/10/10 07:32:46;;;;;;;8.20;5.30;;;16.30;99.90;;;;;;5108341;27;20456;-76
2022/10/10 07:35:13;;;;;;;8.70;5.50;;;16.20;99.90;;;;;;5110072;28;20449;-76
2022/10/10 07:37:41;;;;;;;9.13;6.47;;;16.10;99.90;;;;;;5109246;28;20458;-76
2022/10/10 07:40:09;;;;;;;7.17;5.70;;;15.80;99.90;;;;;;5091213;28;20455;-76
2022/10/10 07:42:35;;;;;;;15.73;5.80;;;15.30;99.90;;;;;;5094494;28;20479;-76
2022/10/10 07:45:02;;;;;;;12.20;6.23;;;14.80;99.90;;;;;;5091575;28;20443;-75
2022/10/10 07:47:29;;;;;;;16.90;5.90;;;14.50;99.90;;;;;;5091585;28;20959;-75
2022/10/10 07:49:55;;;;;;;9.43;6.07;;;14.10;99.90;;;;;;5091244;28;20985;-76
2022/10/10 07:52:22;;;;;;;15.43;6.57;;;13.90;99.90;;;;;;5091328;28;20473;-76
2022/10/10 07:54:50;;;;;;;13.00;6.47;;;13.80;99.90;;;;;;5090069;28;20455;-75
2022/10/10 07:57:17;;;;;;;10.80;5.80;;;13.40;99.90;;;;;;5091415;28;20451;-76
2022/10/10 07:59:44;;;;;;;8.50;5.93;;;13.00;99.90;;;;;;5105131;28;20454;-75
2022/10/10 08:02:11;;;;;;;12.60;6.50;;;12.70;99.90;;;;;;5100638;28;20916;-75
2022/10/10 08:04:38;;;;;;;6.93;6.20;;;12.50;99.90;;;;;;5100580;28;20492;-75
2022/10/10 08:07:05;;;;;;;10.70;6.57;;;12.30;99.90;;;;;;5108285;28;20533;-76
2022/10/10 08:09:32;;;;;;;10.80;6.60;;;12.40;99.90;;;;;;5098927;28;20465;-76
2022/10/10 08:12:00;;;;;;;11.30;6.40;;;12.50;99.90;;;;;;5096247;28;20479;-76
2022/10/10 08:14:26;;;;;;;10.43;6.60;;;12.60;99.90;;;;;;5094505;28;20466;-75
2022/10/10 08:16:53;;;;;;;15.93;6.60;;;12.50;99.90;;;;;;5097569;28;20808;-75
2022/10/10 08:19:20;;;;;;;12.10;6.37;;;12.00;99.90;;;;;;5094874;28;20462;-75
2022/10/10 08:21:46;;;;;;;8.90;6.63;;;11.70;99.90;;;;;;5100788;28;20549;-75
2022/10/10 08:24:13;;;;;;;9.03;6.50;;;11.50;99.90;;;;;;5101746;28;20545;-75
2022/10/10 08:26:40;;;;;;;13.73;7.50;;;11.60;99.90;;;;;;5094695;28;20451;-75
2022/10/10 08:29:08;;;;;;;19.83;7.33;;;12.10;99.90;;;;;;5109259;28;20749;-75
2022/10/10 08:31:34;;;;;;;11.47;8.10;;;12.50;99.90;;;;;;5098210;28;20483;-76
2022/10/10 08:34:01;;;;;;;9.70;7.13;;;12.70;99.90;;;;;;5098985;28;20950;-75
2022/10/10 08:36:28;;;;;;;11.10;6.67;;;12.70;99.90;;;;;;5090489;28;20462;-75
2022/10/10 08:38:58;;;;;;;14.40;7.47;;;12.70;99.90;;;;;;5090286;28;20461;-76
2022/10/10 08:41:32;;;;;;;10.83;7.60;;;12.60;99.90;;;;;;5090237;28;20488;-76
2022/10/10 08:44:02;;;;;;;10.63;6.97;;;12.60;99.90;;;;;;5090096;28;20490;-76
2022/10/10 08:46:39;;;;;;;11.10;6.60;;;13.00;99.90;;;;;;5094765;28;20454;-76
2022/10/10 08:49:17;;;;;;;10.50;6.80;;;13.40;99.90;;;;;;5099136;28;20450;-76
2022/10/10 08:51:50;;;;;;;9.30;7.80;;;13.70;99.90;;;;;;5092828;28;21107;-76
2022/10/10 08:54:19;;;;;;;12.30;7.93;;;13.80;99.90;;;;;;5102897;28;20455;-76
2022/10/10 08:56:47;;;;;;;14.90;7.77;;;13.80;99.90;;;;;;5097737;28;20454;-76
2022/10/10 08:59:17;;;;;;;16.77;8.17;;;13.90;99.90;;;;;;5103888;28;20459;-75
2022/10/10 09:01:45;;;;;;;10.13;7.50;;;14.00;99.90;;;;;;5093690;28;20540;-75
2022/10/10 09:04:17;;;;;;;8.80;7.03;;;14.20;99.90;;;;;;5090227;28;20495;-76
2022/10/10 09:06:58;;;;;;;10.57;8.67;;;14.50;99.90;;;;;;5094919;28;20458;-77
2022/10/10 09:09:36;;;;;;;12.30;8.63;;;14.40;99.90;;;;;;5106743;28;20454;-77
2022/10/10 09:12:15;;;;;;;10.77;8.10;;;14.40;99.90;;;;;;5100073;28;20456;-76
2022/10/10 09:14:48;;;;;;;17.83;8.50;;;14.60;99.90;;;;;;5093790;28;20859;-77
2022/10/10 09:17:34;;;;;;;14.33;8.63;;;15.00;99.90;;;;;;5106231;28;20484;-77
2022/10/10 09:20:17;;;;;;;11.80;8.47;;;15.40;99.90;;;;;;5105889;28;20503;-77
2022/10/10 09:22:51;;;;;;;9.60;7.67;;;15.70;99.90;;;;;;5095099;28;20507;-77
2022/10/10 09:25:22;;;;;;;13.90;8.87;;;15.90;99.90;;;;;;5099039;28;20479;-77
2022/10/10 09:27:58;;;;;;;9.10;6.80;;;16.10;99.90;;;;;;5097509;28;20429;-77
2022/10/10 09:30:25;;;;;;;14.43;8.07;;;16.20;99.90;;;;;;5089407;28;20552;-77
2022/10/10 09:33:01;;;;;;;14.20;6.93;;;16.10;99.90;;;;;;5090035;28;20827;-77
2022/10/10 09:35:30;;;;;;;9.97;8.00;;;16.10;99.90;;;;;;5106218;28;20457;-76
2022/10/10 09:38:01;;;;;;;11.23;7.43;;;16.00;99.90;;;;;;5105916;28;20428;-76
2022/10/10 09:40:32;;;;;;;9.30;6.87;;;16.10;99.90;;;;;;5107313;28;20446;-77
2022/10/10 09:43:00;;;;;;;12.00;8.00;;;16.30;99.90;;;;;;5100760;28;20464;-77
2022/10/10 09:45:31;;;;;;;9.87;7.33;;;16.20;99.90;;;;;;5099652;28;20240;-77
2022/10/10 09:47:59;;;;;;;14.20;7.30;;;16.20;99.90;;;;;;5097985;28;20454;-77
2022/10/10 09:50:27;;;;;;;13.57;8.13;;;16.30;99.90;;;;;;5091637;28;20971;-76
2022/10/10 09:52:53;;;;;;;13.10;7.17;;;16.60;99.90;;;;;;5102040;28;20928;-76
2022/10/10 09:55:25;;;;;;;11.67;8.07;;;16.80;99.90;;;;;;5102097;28;20499;-76
2022/10/10 09:57:53;;;;;;;11.93;7.93;;;16.80;99.90;;;;;;5107171;28;20459;-76
2022/10/10 10:00:34;;;;;;;10.10;7.50;;;17.00;99.90;;;;;;5103319;28;20442;-76
2022/10/10 10:03:10;;;;;;;12.70;8.30;;;16.90;99.90;;;;;;5096019;28;20458;-76
2022/10/10 10:05:39;;;;;;;10.87;7.10;;;17.20;99.90;;;;;;5102732;28;20971;-76
2022/10/10 10:08:16;;;;;;;15.73;8.00;;;17.40;99.90;;;;;;5102145;28;20890;-77
2022/10/10 10:10:43;;;;;;;10.30;7.70;;;17.70;99.90;;;;;;5098021;28;20453;-76
2022/10/10 10:13:13;;;;;;;12.77;8.20;;;17.70;99.90;;;;;;5094399;28;20433;-76
2022/10/10 10:15:48;;;;;;;13.10;7.90;;;18.10;99.90;;;;;;5093805;28;20452;-76
2022/10/10 10:18:24;;;;;;;11.53;7.97;;;18.20;99.90;;;;;;5100530;28;20504;-76
2022/10/10 10:20:53;;;;;;;11.40;7.83;;;18.30;99.90;;;;;;5110989;28;20441;-76
2022/10/10 10:23:24;;;;;;;11.30;7.77;;;18.40;99.90;;;;;;5110219;28;20425;-76
2022/10/10 10:25:59;;;;;;;11.43;8.23;;;18.50;99.90;;;;;;5105480;28;20425;-77
2022/10/10 10:28:26;;;;;;;14.60;7.50;;;18.10;99.90;;;;;;5100707;28;20439;-77
2022/10/10 10:30:54;;;;;;;14.07;8.67;;;17.90;99.90;;;;;;5096371;28;20496;-77
2022/10/10 10:33:46;;;;;;;31.07;8.97;;;17.80;99.90;;;;;;5110981;28;20454;-77
2022/10/10 10:36:28;;;;;;;11.23;7.97;;;17.60;99.90;;;;;;5102068;28;20429;-77
2022/10/10 10:39:03;;;;;;;14.50;8.90;;;17.60;99.90;;;;;;5096705;28;20422;-77
2022/10/10 10:41:36;;;;;;;21.73;9.90;;;17.60;99.90;;;;;;5096046;28;20445;-77
2022/10/10 10:44:18;;;;;;;12.33;10.23;;;17.50;99.90;;;;;;5097702;28;20450;-77
2022/10/10 10:46:57;;;;;;;23.83;10.00;;;17.20;99.90;;;;;;5096656;28;20429;-77
2022/10/10 10:49:32;;;;;;;17.23;10.27;;;17.10;99.90;;;;;;5099964;28;20865;-77
2022/10/10 10:52:22;;;;;;;13.23;8.83;;;16.90;99.90;;;;;;5096411;28;20518;-77
2022/10/10 10:55:14;;;;;;;17.40;9.90;;;16.90;99.90;;;;;;5093052;28;20448;-76
2022/10/10 10:57:53;;;;;;;18.73;9.10;;;16.70;99.90;;;;;;5093232;28;20829;-76
2022/10/10 11:00:20;;;;;;;18.23;10.03;;;17.00;99.90;;;;;;5109955;28;20509;-77
2022/10/10 11:02:59;;;;;;;17.53;8.93;;;17.30;99.90;;;;;;5103951;28;20430;-77
2022/10/10 11:05:36;;;;;;;16.30;7.90;;;17.40;99.90;;;;;;5105859;28;21038;-77
2022/10/10 11:08:17;;;;;;;16.03;9.37;;;17.60;99.90;;;;;;5096178;28;20417;-77
2022/10/10 11:10:58;;;;;;;15.20;8.77;;;17.80;99.90;;;;;;5094816;28;20473;-76
2022/10/10 11:13:32;;;;;;;12.37;8.43;;;18.00;99.90;;;;;;5104196;28;20455;-75
2022/10/10 11:16:04;;;;;;;16.40;7.83;;;18.10;99.90;;;;;;5096699;28;20426;-76
2022/10/10 11:18:35;;;;;;;11.33;8.30;;;18.00;99.90;;;;;;5095717;28;20455;-78
2022/10/10 11:21:08;;;;;;;11.87;7.67;;;18.00;99.90;;;;;;5096260;28;20467;-75
2022/10/10 11:23:39;;;;;;;13.07;7.70;;;18.00;99.90;;;;;;5092909;28;20418;-75
2022/10/10 11:26:10;;;;;;;14.97;8.87;;;18.10;99.90;;;;;;5092716;28;20455;-75
2022/10/10 11:28:40;;;;;;;12.90;7.57;;;18.10;99.90;;;;;;5096635;28;20476;-75
2022/10/10 11:31:12;;;;;;;11.63;8.27;;;18.00;99.90;;;;;;5096000;28;20445;-75
2022/10/10 11:33:45;;;;;;;13.77;7.93;;;18.10;99.90;;;;;;5098970;28;20428;-73
2022/10/10 11:36:17;;;;;;;10.90;7.37;;;18.00;99.90;;;;;;5097039;28;20434;-75
2022/10/10 11:38:48;;;;;;;14.47;8.73;;;18.10;99.90;;;;;;5095509;28;20443;-74
2022/10/10 11:41:20;;;;;;;14.00;8.23;;;18.20;99.90;;;;;;5108226;28;21019;-75
2022/10/10 11:43:53;;;;;;;11.40;7.60;;;18.40;99.90;;;;;;5109852;28;20421;-74
2022/10/10 11:46:28;;;;;;;13.10;6.93;;;18.50;99.90;;;;;;5107149;28;20454;-76
2022/10/10 11:49:03;;;;;;;9.60;7.47;;;18.40;99.90;;;;;;5103647;28;20447;-76
2022/10/10 11:51:43;;;;;;;20.10;7.70;;;18.40;99.90;;;;;;5094833;28;20471;-75
2022/10/10 11:54:21;;;;;;;16.93;7.10;;;18.50;99.90;;;;;;5096102;28;20923;-74
2022/10/10 11:56:51;;;;;;;11.60;6.10;;;18.90;99.90;;;;;;5097790;28;20483;-75
2022/10/10 11:59:24;;;;;;;9.87;6.20;;;19.10;99.90;;;;;;5108203;28;20429;-74
2022/10/10 12:01:54;;;;;;;12.53;6.97;;;19.30;99.90;;;;;;5109373;28;20485;-74
2022/10/10 12:04:22;;;;;;;17.20;7.50;;;19.40;99.90;;;;;;5103883;28;20479;-74
2022/10/10 12:06:56;;;;;;;8.57;5.80;;;19.30;99.90;;;;;;5109234;28;20500;-74
2022/10/10 12:09:28;;;;;;;9.33;6.17;;;19.30;99.90;;;;;;5102515;28;20425;-74
2022/10/10 12:11:59;;;;;;;10.40;6.47;;;19.50;99.90;;;;;;5105197;28;20473;-74
2022/10/10 12:14:28;;;;;;;10.30;5.17;;;20.00;99.90;;;;;;5096902;28;20448;-74
2022/10/10 12:16:56;;;;;;;13.73;5.27;;;20.40;99.90;;;;;;5108882;28;20456;-75
2022/10/10 12:19:24;;;;;;;7.97;4.80;;;20.50;99.90;;;;;;5091520;28;20455;-75
2022/10/10 12:21:56;;;;;;;8.87;4.93;;;20.60;99.90;;;;;;5090982;28;20550;-75
2022/10/10 12:24:24;;;;;;;6.50;4.87;;;20.80;99.90;;;;;;5101567;28;20873;-75
2022/10/10 12:27:25;;;;;;;14.03;5.90;;;20.90;99.90;;;;;;5103783;28;20449;-75
2022/10/10 12:30:17;;;;;;;11.70;5.70;;;21.00;99.90;;;;;;5091917;28;20483;-74
2022/10/10 12:32:45;;;;;;;10.27;5.20;;;21.00;99.90;;;;;;5099437;28;20446;-75
2022/10/10 12:35:32;;;;;;;11.60;4.90;;;21.20;99.90;;;;;;5104736;28;20493;-75
2022/10/10 12:38:19;;;;;;;14.20;5.60;;;21.30;99.90;;;;;;5094332;28;20455;-74
2022/10/10 12:41:08;;;;;;;12.53;5.97;;;21.30;99.90;;;;;;5090211;28;20487;-75
2022/10/10 12:43:41;;;;;;;17.93;5.90;;;21.20;99.90;;;;;;5096320;28;20442;-76
2022/10/10 12:46:17;;;;;;;10.33;5.10;;;21.40;99.90;;;;;;5106491;28;20991;-75
2022/10/10 12:48:44;;;;;;;14.27;5.40;;;21.60;99.90;;;;;;5103796;28;20465;-74
2022/10/10 12:51:20;;;;;;;8.43;4.57;;;21.80;99.90;;;;;;5106639;28;20482;-74
2022/10/10 12:53:52;;;;;;;10.53;4.70;;;21.90;99.90;;;;;;5094198;28;20447;-74
2022/10/10 12:56:39;;;;;;;7.87;5.03;;;21.70;99.90;;;;;;5095203;28;20453;-74
2022/10/10 12:59:16;;;;;;;5.50;4.80;;;21.40;99.90;;;;;;5095017;28;20444;-74
2022/10/10 13:01:46;;;;;;;10.53;4.30;;;21.40;99.90;;;;;;5098573;28;20498;-74